sensor_id;sensor_type;location;lat;lon;timestamp;P1;durP1;ratioP1;P2;durP2;ratioP2
70757;SDS011;59316;52.964;7.102;2022-12-13T00:04:58;70.28;;;23.23;;
70757;SDS011;59316;52.964;7.102;2022-12-13T00:10:00;82.45;;;23.92;;
70757;SDS011;59316;52.964;7.102;2022-12-13T00:15:02;75.47;;;24.97;;
70757;SDS011;59316;52.964;7.102;2022-12-13T00:20:04;83.33;;;24.93;;
70757;SDS011;59316;52.964;7.102;2022-12-13T00:25:06;96.17;;;23.73;;
70757;SDS011;59316;52.964;7.102;2022-12-13T00:30:08;94.40;;;25.70;;
70757;SDS011;59316;52.964;7.102;2022-12-13T00:35:10;90.57;;;26.87;;
70757;SDS011;59316;52.964;7.102;2022-12-13T00:40:12;85.07;;;23.70;;
70757;SDS011;59316;52.964;7.102;2022-12-13T00:45:14;96.97;;;25.30;;
70757;SDS011;59316;52.964;7.102;2022-12-13T00:50:16;89.85;;;26.23;;
70757;SDS011;59316;52.964;7.102;2022-12-13T00:55:18;89.57;;;26.47;;
70757;SDS011;59316;52.964;7.102;2022-12-13T01:00:20;92.00;;;26.85;;
70757;SDS011;59316;52.964;7.102;2022-12-13T01:05:22;96.83;;;27.70;;
70757;SDS011;59316;52.964;7.102;2022-12-13T01:10:44;94.00;;;27.45;;
70757;SDS011;59316;52.964;7.102;2022-12-13T01:15:47;93.43;;;24.83;;
70757;SDS011;59316;52.964;7.102;2022-12-13T01:21:03;97.50;;;27.57;;
70757;SDS011;59316;52.964;7.102;2022-12-13T01:26:06;96.35;;;26.27;;
70757;SDS011;59316;52.964;7.102;2022-12-13T01:31:09;89.50;;;26.30;;
70757;SDS011;59316;52.964;7.102;2022-12-13T01:36:18;94.30;;;26.73;;
70757;SDS011;59316;52.964;7.102;2022-12-13T01:41:29;91.85;;;26.83;;
70757;SDS011;59316;52.964;7.102;2022-12-13T01:46:32;80.20;;;24.83;;
70757;SDS011;59316;52.964;7.102;2022-12-13T01:51:36;82.03;;;25.67;;
70757;SDS011;59316;52.964;7.102;2022-12-13T01:56:42;88.32;;;24.95;;
70757;SDS011;59316;52.964;7.102;2022-12-13T02:01:48;77.95;;;22.98;;
70757;SDS011;59316;52.964;7.102;2022-12-13T02:11:52;66.97;;;22.67;;
70757;SDS011;59316;52.964;7.102;2022-12-13T02:27:03;76.70;;;23.83;;
70757;SDS011;59316;52.964;7.102;2022-12-13T02:32:23;69.78;;;22.30;;
70757;SDS011;59316;52.964;7.102;2022-12-13T02:42:38;77.13;;;22.35;;
70757;SDS011;59316;52.964;7.102;2022-12-13T02:47:42;80.22;;;22.60;;
70757;SDS011;59316;52.964;7.102;2022-12-13T02:52:44;64.95;;;22.10;;
70757;SDS011;59316;52.964;7.102;2022-12-13T02:57:46;78.43;;;23.65;;
70757;SDS011;59316;52.964;7.102;2022-12-13T03:13:22;64.97;;;21.35;;
70757;SDS011;59316;52.964;7.102;2022-12-13T03:18:29;70.00;;;24.60;;
70757;SDS011;59316;52.964;7.102;2022-12-13T03:23:33;76.25;;;23.67;;
70757;SDS011;59316;52.964;7.102;2022-12-13T03:28:36;86.03;;;24.95;;
70757;SDS011;59316;52.964;7.102;2022-12-13T03:33:38;81.28;;;24.85;;
70757;SDS011;59316;52.964;7.102;2022-12-13T03:38:40;80.87;;;24.90;;
70757;SDS011;59316;52.964;7.102;2022-12-13T03:43:42;73.90;;;24.17;;
70757;SDS011;59316;52.964;7.102;2022-12-13T03:48:44;97.37;;;25.27;;
70757;SDS011;59316;52.964;7.102;2022-12-13T03:53:45;85.47;;;25.50;;
70757;SDS011;59316;52.964;7.102;2022-12-13T03:58:47;91.30;;;26.80;;
70757;SDS011;59316;52.964;7.102;2022-12-13T04:03:49;95.10;;;26.97;;
70757;SDS011;59316;52.964;7.102;2022-12-13T04:08:51;93.87;;;28.87;;
70757;SDS011;59316;52.964;7.102;2022-12-13T04:13:53;96.82;;;29.83;;
70757;SDS011;59316;52.964;7.102;2022-12-13T04:18:55;106.73;;;28.87;;
70757;SDS011;59316;52.964;7.102;2022-12-13T04:23:57;99.30;;;28.58;;
70757;SDS011;59316;52.964;7.102;2022-12-13T04:29:01;100.75;;;29.70;;
70757;SDS011;59316;52.964;7.102;2022-12-13T04:34:03;118.35;;;31.55;;
70757;SDS011;59316;52.964;7.102;2022-12-13T04:39:05;102.47;;;32.40;;
70757;SDS011;59316;52.964;7.102;2022-12-13T04:44:23;115.28;;;31.67;;
70757;SDS011;59316;52.964;7.102;2022-12-13T04:49:30;158.13;;;31.55;;
70757;SDS011;59316;52.964;7.102;2022-12-13T04:54:32;129.18;;;32.88;;
70757;SDS011;59316;52.964;7.102;2022-12-13T04:59:37;106.25;;;27.45;;
70757;SDS011;59316;52.964;7.102;2022-12-13T05:04:39;116.28;;;30.13;;
70757;SDS011;59316;52.964;7.102;2022-12-13T05:09:41;101.82;;;29.20;;
70757;SDS011;59316;52.964;7.102;2022-12-13T05:14:44;105.28;;;30.00;;
70757;SDS011;59316;52.964;7.102;2022-12-13T05:19:46;106.10;;;31.33;;
70757;SDS011;59316;52.964;7.102;2022-12-13T05:24:48;108.07;;;28.63;;
70757;SDS011;59316;52.964;7.102;2022-12-13T05:29:50;100.43;;;28.33;;
70757;SDS011;59316;52.964;7.102;2022-12-13T05:35:04;99.53;;;28.02;;
70757;SDS011;59316;52.964;7.102;2022-12-13T05:45:09;95.93;;;26.10;;
70757;SDS011;59316;52.964;7.102;2022-12-13T05:50:11;95.07;;;28.37;;
70757;SDS011;59316;52.964;7.102;2022-12-13T05:55:13;81.75;;;27.40;;
70757;SDS011;59316;52.964;7.102;2022-12-13T06:00:17;82.60;;;26.40;;
70757;SDS011;59316;52.964;7.102;2022-12-13T06:05:31;86.65;;;26.27;;
70757;SDS011;59316;52.964;7.102;2022-12-13T06:10:33;74.53;;;25.20;;
70757;SDS011;59316;52.964;7.102;2022-12-13T06:15:36;103.13;;;27.17;;
70757;SDS011;59316;52.964;7.102;2022-12-13T06:20:54;89.95;;;24.42;;
70757;SDS011;59316;52.964;7.102;2022-12-13T06:25:56;75.03;;;23.05;;
70757;SDS011;59316;52.964;7.102;2022-12-13T06:30:59;72.43;;;23.47;;
70757;SDS011;59316;52.964;7.102;2022-12-13T06:36:01;87.28;;;24.58;;
70757;SDS011;59316;52.964;7.102;2022-12-13T06:41:06;75.67;;;23.27;;
70757;SDS011;59316;52.964;7.102;2022-12-13T06:46:08;78.75;;;25.33;;
70757;SDS011;59316;52.964;7.102;2022-12-13T06:51:11;72.47;;;24.13;;
70757;SDS011;59316;52.964;7.102;2022-12-13T06:56:13;70.72;;;22.75;;
70757;SDS011;59316;52.964;7.102;2022-12-13T07:01:15;65.67;;;22.77;;
70757;SDS011;59316;52.964;7.102;2022-12-13T07:06:25;67.68;;;23.33;;
70757;SDS011;59316;52.964;7.102;2022-12-13T07:11:28;63.88;;;22.95;;
70757;SDS011;59316;52.964;7.102;2022-12-13T07:16:30;69.63;;;22.58;;
70757;SDS011;59316;52.964;7.102;2022-12-13T07:21:32;64.07;;;21.15;;
70757;SDS011;59316;52.964;7.102;2022-12-13T07:26:34;64.93;;;21.83;;
70757;SDS011;59316;52.964;7.102;2022-12-13T07:31:36;72.47;;;22.33;;
70757;SDS011;59316;52.964;7.102;2022-12-13T07:36:38;75.47;;;23.63;;
70757;SDS011;59316;52.964;7.102;2022-12-13T07:41:40;64.80;;;20.50;;
70757;SDS011;59316;52.964;7.102;2022-12-13T07:46:42;66.45;;;21.98;;
70757;SDS011;59316;52.964;7.102;2022-12-13T07:51:43;84.00;;;22.58;;
70757;SDS011;59316;52.964;7.102;2022-12-13T07:56:45;58.60;;;22.60;;
70757;SDS011;59316;52.964;7.102;2022-12-13T08:01:47;95.95;;;21.95;;
70757;SDS011;59316;52.964;7.102;2022-12-13T08:06:49;67.03;;;21.98;;
70757;SDS011;59316;52.964;7.102;2022-12-13T08:11:51;63.63;;;21.63;;
70757;SDS011;59316;52.964;7.102;2022-12-13T08:16:53;58.47;;;20.33;;
70757;SDS011;59316;52.964;7.102;2022-12-13T08:21:54;71.78;;;22.35;;
70757;SDS011;59316;52.964;7.102;2022-12-13T08:26:59;65.00;;;21.85;;
70757;SDS011;59316;52.964;7.102;2022-12-13T08:32:02;66.13;;;21.58;;
70757;SDS011;59316;52.964;7.102;2022-12-13T08:37:04;85.63;;;24.25;;
70757;SDS011;59316;52.964;7.102;2022-12-13T08:42:08;77.68;;;23.50;;
70757;SDS011;59316;52.964;7.102;2022-12-13T08:47:23;69.80;;;22.67;;
70757;SDS011;59316;52.964;7.102;2022-12-13T08:52:27;84.85;;;22.17;;
70757;SDS011;59316;52.964;7.102;2022-12-13T08:57:29;79.82;;;23.63;;
70757;SDS011;59316;52.964;7.102;2022-12-13T09:02:31;72.88;;;23.42;;
70757;SDS011;59316;52.964;7.102;2022-12-13T09:07:39;72.72;;;21.42;;
70757;SDS011;59316;52.964;7.102;2022-12-13T09:12:41;81.40;;;24.03;;
70757;SDS011;59316;52.964;7.102;2022-12-13T09:17:43;74.43;;;22.23;;
70757;SDS011;59316;52.964;7.102;2022-12-13T09:22:53;76.57;;;24.00;;
70757;SDS011;59316;52.964;7.102;2022-12-13T09:28:03;78.38;;;23.90;;
70757;SDS011;59316;52.964;7.102;2022-12-13T09:33:05;84.00;;;23.45;;
70757;SDS011;59316;52.964;7.102;2022-12-13T09:38:27;73.00;;;23.65;;
70757;SDS011;59316;52.964;7.102;2022-12-13T09:43:30;77.57;;;23.95;;
70757;SDS011;59316;52.964;7.102;2022-12-13T09:48:44;79.05;;;23.75;;
70757;SDS011;59316;52.964;7.102;2022-12-13T09:53:50;78.65;;;23.83;;
70757;SDS011;59316;52.964;7.102;2022-12-13T09:58:53;75.32;;;24.83;;
70757;SDS011;59316;52.964;7.102;2022-12-13T10:03:55;79.68;;;25.65;;
70757;SDS011;59316;52.964;7.102;2022-12-13T10:09:00;84.25;;;26.30;;
70757;SDS011;59316;52.964;7.102;2022-12-13T10:14:07;76.72;;;25.95;;
70757;SDS011;59316;52.964;7.102;2022-12-13T10:19:17;100.80;;;28.35;;
70757;SDS011;59316;52.964;7.102;2022-12-13T10:40:26;98.40;;;27.98;;
70757;SDS011;59316;52.964;7.102;2022-12-13T10:45:33;114.63;;;30.17;;
70757;SDS011;59316;52.964;7.102;2022-12-13T10:50:35;94.00;;;28.20;;
70757;SDS011;59316;52.964;7.102;2022-12-13T10:55:37;95.72;;;30.65;;
70757;SDS011;59316;52.964;7.102;2022-12-13T11:00:41;79.72;;;26.95;;
70757;SDS011;59316;52.964;7.102;2022-12-13T11:05:44;71.97;;;25.92;;
70757;SDS011;59316;52.964;7.102;2022-12-13T11:10:47;61.20;;;25.23;;
70757;SDS011;59316;52.964;7.102;2022-12-13T11:15:56;54.75;;;23.02;;
70757;SDS011;59316;52.964;7.102;2022-12-13T11:20:59;52.42;;;21.67;;
70757;SDS011;59316;52.964;7.102;2022-12-13T11:26:07;53.15;;;22.42;;
70757;SDS011;59316;52.964;7.102;2022-12-13T11:31:15;54.92;;;24.05;;
70757;SDS011;59316;52.964;7.102;2022-12-13T11:36:37;55.85;;;22.20;;
70757;SDS011;59316;52.964;7.102;2022-12-13T11:41:49;59.33;;;24.17;;
70757;SDS011;59316;52.964;7.102;2022-12-13T11:46:57;63.13;;;24.75;;
70757;SDS011;59316;52.964;7.102;2022-12-13T11:52:01;61.72;;;24.27;;
70757;SDS011;59316;52.964;7.102;2022-12-13T11:57:04;73.00;;;27.98;;
70757;SDS011;59316;52.964;7.102;2022-12-13T12:02:32;74.95;;;28.02;;
70757;SDS011;59316;52.964;7.102;2022-12-13T12:07:38;75.13;;;28.20;;
70757;SDS011;59316;52.964;7.102;2022-12-13T12:18:21;59.30;;;24.60;;
70757;SDS011;59316;52.964;7.102;2022-12-13T12:34:07;53.45;;;24.35;;
70757;SDS011;59316;52.964;7.102;2022-12-13T12:44:43;50.03;;;23.40;;
70757;SDS011;59316;52.964;7.102;2022-12-13T12:54:59;64.53;;;26.80;;
70757;SDS011;59316;52.964;7.102;2022-12-13T13:00:16;64.65;;;27.00;;
70757;SDS011;59316;52.964;7.102;2022-12-13T13:05:24;59.45;;;26.05;;
70757;SDS011;59316;52.964;7.102;2022-12-13T13:10:27;56.13;;;24.48;;
70757;SDS011;59316;52.964;7.102;2022-12-13T13:20:33;51.40;;;23.25;;
70757;SDS011;59316;52.964;7.102;2022-12-13T13:25:35;59.88;;;23.50;;
70757;SDS011;59316;52.964;7.102;2022-12-13T13:31:00;57.25;;;23.25;;
70757;SDS011;59316;52.964;7.102;2022-12-13T13:36:02;58.28;;;24.60;;
70757;SDS011;59316;52.964;7.102;2022-12-13T13:46:25;54.63;;;23.92;;
70757;SDS011;59316;52.964;7.102;2022-12-13T14:23:41;60.85;;;24.58;;
70757;SDS011;59316;52.964;7.102;2022-12-13T14:33:53;58.72;;;23.60;;
70757;SDS011;59316;52.964;7.102;2022-12-13T14:39:11;56.70;;;23.23;;
70757;SDS011;59316;52.964;7.102;2022-12-13T14:44:30;63.30;;;23.83;;
70757;SDS011;59316;52.964;7.102;2022-12-13T14:49:37;54.50;;;22.58;;
70757;SDS011;59316;52.964;7.102;2022-12-13T14:54:42;56.60;;;21.85;;
70757;SDS011;59316;52.964;7.102;2022-12-13T14:59:45;57.72;;;22.48;;
70757;SDS011;59316;52.964;7.102;2022-12-13T15:04:55;58.38;;;23.73;;
70757;SDS011;59316;52.964;7.102;2022-12-13T15:09:58;51.20;;;21.55;;
70757;SDS011;59316;52.964;7.102;2022-12-13T15:15:02;58.85;;;22.27;;
70757;SDS011;59316;52.964;7.102;2022-12-13T15:20:47;54.58;;;22.42;;
70757;SDS011;59316;52.964;7.102;2022-12-13T15:25:38;56.65;;;21.05;;
70757;SDS011;59316;52.964;7.102;2022-12-13T15:30:40;52.83;;;22.73;;
70757;SDS011;59316;52.964;7.102;2022-12-13T15:35:42;61.33;;;21.60;;
70757;SDS011;59316;52.964;7.102;2022-12-13T15:40:48;58.13;;;22.25;;
70757;SDS011;59316;52.964;7.102;2022-12-13T15:45:50;56.93;;;21.77;;
70757;SDS011;59316;52.964;7.102;2022-12-13T15:51:03;59.92;;;23.38;;
70757;SDS011;59316;52.964;7.102;2022-12-13T16:06:27;66.13;;;24.77;;
70757;SDS011;59316;52.964;7.102;2022-12-13T16:11:32;57.15;;;23.88;;
70757;SDS011;59316;52.964;7.102;2022-12-13T16:16:34;64.13;;;23.52;;
70757;SDS011;59316;52.964;7.102;2022-12-13T16:21:37;60.57;;;23.97;;
70757;SDS011;59316;52.964;7.102;2022-12-13T16:26:42;69.18;;;25.35;;
70757;SDS011;59316;52.964;7.102;2022-12-13T16:31:44;71.88;;;23.52;;
70757;SDS011;59316;52.964;7.102;2022-12-13T16:36:46;71.45;;;26.27;;
70757;SDS011;59316;52.964;7.102;2022-12-13T16:41:49;58.55;;;24.83;;
70757;SDS011;59316;52.964;7.102;2022-12-13T16:46:51;59.60;;;23.20;;
70757;SDS011;59316;52.964;7.102;2022-12-13T16:52:12;66.50;;;22.63;;
70757;SDS011;59316;52.964;7.102;2022-12-13T16:57:14;63.28;;;23.63;;
70757;SDS011;59316;52.964;7.102;2022-12-13T17:02:16;67.25;;;23.92;;
70757;SDS011;59316;52.964;7.102;2022-12-13T17:07:18;62.37;;;22.53;;
70757;SDS011;59316;52.964;7.102;2022-12-13T17:12:22;59.20;;;22.70;;
70757;SDS011;59316;52.964;7.102;2022-12-13T17:17:24;49.78;;;20.17;;
70757;SDS011;59316;52.964;7.102;2022-12-13T17:22:26;63.95;;;23.13;;
70757;SDS011;59316;52.964;7.102;2022-12-13T17:27:28;51.70;;;20.75;;
70757;SDS011;59316;52.964;7.102;2022-12-13T17:32:30;62.33;;;22.90;;
70757;SDS011;59316;52.964;7.102;2022-12-13T17:37:32;55.25;;;21.02;;
70757;SDS011;59316;52.964;7.102;2022-12-13T17:42:33;56.28;;;23.35;;
70757;SDS011;59316;52.964;7.102;2022-12-13T17:47:35;64.80;;;23.17;;
70757;SDS011;59316;52.964;7.102;2022-12-13T17:52:37;58.80;;;22.67;;
70757;SDS011;59316;52.964;7.102;2022-12-13T17:57:39;62.00;;;24.25;;
70757;SDS011;59316;52.964;7.102;2022-12-13T18:02:41;66.00;;;25.83;;
70757;SDS011;59316;52.964;7.102;2022-12-13T18:07:56;58.63;;;23.00;;
70757;SDS011;59316;52.964;7.102;2022-12-13T18:12:57;62.25;;;24.95;;
70757;SDS011;59316;52.964;7.102;2022-12-13T18:17:59;74.22;;;26.55;;
70757;SDS011;59316;52.964;7.102;2022-12-13T18:23:12;65.13;;;24.17;;
70757;SDS011;59316;52.964;7.102;2022-12-13T18:28:14;77.50;;;27.10;;
70757;SDS011;59316;52.964;7.102;2022-12-13T18:33:16;78.60;;;26.40;;
70757;SDS011;59316;52.964;7.102;2022-12-13T18:38:18;70.93;;;26.20;;
70757;SDS011;59316;52.964;7.102;2022-12-13T18:43:20;71.83;;;25.93;;
70757;SDS011;59316;52.964;7.102;2022-12-13T18:48:22;70.43;;;25.77;;
70757;SDS011;59316;52.964;7.102;2022-12-13T18:53:26;68.43;;;25.67;;
70757;SDS011;59316;52.964;7.102;2022-12-13T18:58:30;69.68;;;23.30;;
70757;SDS011;59316;52.964;7.102;2022-12-13T19:03:32;63.90;;;24.10;;
70757;SDS011;59316;52.964;7.102;2022-12-13T19:08:34;60.88;;;23.83;;
70757;SDS011;59316;52.964;7.102;2022-12-13T19:13:36;58.58;;;23.02;;
70757;SDS011;59316;52.964;7.102;2022-12-13T19:18:38;62.47;;;23.40;;
70757;SDS011;59316;52.964;7.102;2022-12-13T19:23:41;61.67;;;23.60;;
70757;SDS011;59316;52.964;7.102;2022-12-13T19:28:43;62.47;;;24.07;;
70757;SDS011;59316;52.964;7.102;2022-12-13T19:33:45;73.77;;;23.13;;
70757;SDS011;59316;52.964;7.102;2022-12-13T19:38:47;53.30;;;20.97;;
70757;SDS011;59316;52.964;7.102;2022-12-13T19:43:49;59.08;;;24.13;;
70757;SDS011;59316;52.964;7.102;2022-12-13T19:48:53;56.97;;;22.67;;
70757;SDS011;59316;52.964;7.102;2022-12-13T19:53:55;52.30;;;22.58;;
70757;SDS011;59316;52.964;7.102;2022-12-13T20:04:00;55.22;;;20.95;;
70757;SDS011;59316;52.964;7.102;2022-12-13T20:09:02;60.83;;;21.98;;
70757;SDS011;59316;52.964;7.102;2022-12-13T20:14:03;52.07;;;22.57;;
70757;SDS011;59316;52.964;7.102;2022-12-13T20:19:05;60.38;;;22.50;;
70757;SDS011;59316;52.964;7.102;2022-12-13T20:24:07;59.33;;;22.07;;
70757;SDS011;59316;52.964;7.102;2022-12-13T20:29:09;53.30;;;21.02;;
70757;SDS011;59316;52.964;7.102;2022-12-13T20:34:11;53.28;;;20.17;;
70757;SDS011;59316;52.964;7.102;2022-12-13T20:39:13;60.03;;;22.33;;
70757;SDS011;59316;52.964;7.102;2022-12-13T20:44:14;59.03;;;22.50;;
70757;SDS011;59316;52.964;7.102;2022-12-13T20:49:16;72.57;;;25.00;;
70757;SDS011;59316;52.964;7.102;2022-12-13T20:54:18;74.27;;;24.33;;
70757;SDS011;59316;52.964;7.102;2022-12-13T20:59:20;73.07;;;26.48;;
70757;SDS011;59316;52.964;7.102;2022-12-13T21:04:22;63.72;;;23.58;;
70757;SDS011;59316;52.964;7.102;2022-12-13T21:09:25;70.93;;;27.00;;
70757;SDS011;59316;52.964;7.102;2022-12-13T21:14:27;72.97;;;26.08;;
70757;SDS011;59316;52.964;7.102;2022-12-13T21:19:29;78.68;;;27.60;;
70757;SDS011;59316;52.964;7.102;2022-12-13T21:24:40;81.88;;;26.05;;
70757;SDS011;59316;52.964;7.102;2022-12-13T21:29:42;76.93;;;26.35;;
70757;SDS011;59316;52.964;7.102;2022-12-13T21:34:44;77.78;;;26.85;;
70757;SDS011;59316;52.964;7.102;2022-12-13T21:39:45;78.18;;;28.50;;
70757;SDS011;59316;52.964;7.102;2022-12-13T21:44:47;77.20;;;28.73;;
70757;SDS011;59316;52.964;7.102;2022-12-13T21:49:49;87.82;;;29.70;;
70757;SDS011;59316;52.964;7.102;2022-12-13T21:54:51;82.60;;;28.52;;
70757;SDS011;59316;52.964;7.102;2022-12-13T22:00:13;83.43;;;27.42;;
70757;SDS011;59316;52.964;7.102;2022-12-13T22:05:15;90.80;;;28.75;;
70757;SDS011;59316;52.964;7.102;2022-12-13T22:10:17;83.07;;;30.70;;
70757;SDS011;59316;52.964;7.102;2022-12-13T22:15:18;90.45;;;28.20;;
70757;SDS011;59316;52.964;7.102;2022-12-13T22:20:20;87.78;;;29.42;;
70757;SDS011;59316;52.964;7.102;2022-12-13T22:25:22;94.47;;;28.63;;
70757;SDS011;59316;52.964;7.102;2022-12-13T22:30:24;92.37;;;29.03;;
70757;SDS011;59316;52.964;7.102;2022-12-13T22:35:27;96.20;;;30.15;;
70757;SDS011;59316;52.964;7.102;2022-12-13T22:40:28;103.20;;;29.42;;
70757;SDS011;59316;52.964;7.102;2022-12-13T22:45:30;81.70;;;27.88;;
70757;SDS011;59316;52.964;7.102;2022-12-13T22:50:32;93.33;;;30.23;;
70757;SDS011;59316;52.964;7.102;2022-12-13T22:55:34;93.50;;;29.57;;
70757;SDS011;59316;52.964;7.102;2022-12-13T23:00:38;99.82;;;30.35;;
70757;SDS011;59316;52.964;7.102;2022-12-13T23:05:40;89.95;;;27.50;;
70757;SDS011;59316;52.964;7.102;2022-12-13T23:10:42;82.45;;;27.67;;
70757;SDS011;59316;52.964;7.102;2022-12-13T23:15:43;88.82;;;27.98;;
70757;SDS011;59316;52.964;7.102;2022-12-13T23:20:50;85.25;;;28.33;;
70757;SDS011;59316;52.964;7.102;2022-12-13T23:25:53;89.32;;;27.67;;
70757;SDS011;59316;52.964;7.102;2022-12-13T23:30:58;81.10;;;27.70;;
70757;SDS011;59316;52.964;7.102;2022-12-13T23:36:02;87.25;;;29.23;;
70757;SDS011;59316;52.964;7.102;2022-12-13T23:46:13;87.30;;;26.38;;
70757;SDS011;59316;52.964;7.102;2022-12-13T23:51:15;80.85;;;26.27;;
70757;SDS011;59316;52.964;7.102;2022-12-13T23:56:17;67.20;;;23.48;;
